createdAt,value
2017-11-29T00:01:46.821Z,15.83
2017-11-29T00:04:14.323Z,24.73
2017-11-29T00:06:41.826Z,19.93
2017-11-29T00:09:09.310Z,16.53
2017-11-29T00:11:37.565Z,19.07
2017-11-29T00:14:05.074Z,20.27
2017-11-29T00:16:32.589Z,20.40
2017-11-29T00:19:00.911Z,23.80
2017-11-29T00:21:28.406Z,30.40
2017-11-29T00:23:55.885Z,25.13
2017-11-29T00:26:23.424Z,23.67
2017-11-29T00:28:50.910Z,26.27
2017-11-29T00:31:18.375Z,32.13
2017-11-29T00:33:46.663Z,30.90
2017-11-29T00:36:14.913Z,30.63
2017-11-29T00:38:42.420Z,26.67
2017-11-29T00:41:09.892Z,37.47
2017-11-29T00:43:37.388Z,33.80
2017-11-29T00:46:05.709Z,31.07
2017-11-29T00:48:33.204Z,31.03
2017-11-29T00:51:00.701Z,31.20
2017-11-29T00:53:28.181Z,38.00
2017-11-29T00:55:56.472Z,33.43
2017-11-29T00:58:23.951Z,38.33
2017-11-29T01:00:51.476Z,31.83
2017-11-29T01:03:18.968Z,28.43
2017-11-29T01:05:46.483Z,40.90
2017-11-29T01:08:14.722Z,33.33
2017-11-29T01:10:42.215Z,33.73
2017-11-29T01:13:09.725Z,37.83
2017-11-29T01:15:37.229Z,32.47
2017-11-29T01:18:04.705Z,38.50
2017-11-29T01:20:32.947Z,40.30
2017-11-29T01:23:00.465Z,37.40
2017-11-29T01:25:27.961Z,32.10
2017-11-29T01:27:55.481Z,41.03
2017-11-29T01:30:22.953Z,34.50
2017-11-29T01:32:50.444Z,43.47
2017-11-29T01:35:17.928Z,56.20
2017-11-29T01:37:46.204Z,40.63
2017-11-29T01:40:14.543Z,43.57
2017-11-29T01:42:42.071Z,60.30
2017-11-29T01:45:09.570Z,55.00
2017-11-29T01:47:37.080Z,46.53
2017-11-29T01:50:04.556Z,46.67
2017-11-29T01:52:32.028Z,47.80
2017-11-29T01:54:59.512Z,53.27
2017-11-29T01:57:27.017Z,52.37
2017-11-29T01:59:54.488Z,66.87
2017-11-29T02:02:21.957Z,57.20
2017-11-29T02:04:49.436Z,56.87
2017-11-29T02:07:16.911Z,60.97
2017-11-29T02:09:44.407Z,55.10
2017-11-29T02:12:11.915Z,71.90
2017-11-29T02:14:39.415Z,75.03
2017-11-29T02:17:07.662Z,76.17
2017-11-29T02:19:35.135Z,78.13
2017-11-29T02:22:02.638Z,79.27
2017-11-29T02:24:30.151Z,84.67
2017-11-29T02:26:58.430Z,87.67
2017-11-29T02:29:26.694Z,89.43
2017-11-29T02:31:54.180Z,73.50
2017-11-29T02:34:22.488Z,75.77
2017-11-29T02:36:50.049Z,79.63
2017-11-29T02:39:17.554Z,97.13
2017-11-29T02:41:56.989Z,81.17
2017-11-29T02:44:24.476Z,83.83
2017-11-29T02:46:52.762Z,97.40
2017-11-29T02:49:20.267Z,85.67
2017-11-29T02:51:47.758Z,117.33
2017-11-29T02:54:15.257Z,120.10
2017-11-29T02:56:42.764Z,127.77
2017-11-29T02:59:10.253Z,98.77
2017-11-29T03:01:38.500Z,97.70
2017-11-29T03:04:05.999Z,97.80
2017-11-29T03:06:33.496Z,126.47
2017-11-29T03:09:01.026Z,92.00
2017-11-29T03:11:28.514Z,120.37
2017-11-29T03:13:56.015Z,87.87
2017-11-29T03:16:24.256Z,111.37
2017-11-29T03:18:51.752Z,92.83
2017-11-29T03:21:20.431Z,114.27
2017-11-29T03:23:48.677Z,158.73
2017-11-29T03:26:16.160Z,118.60
2017-11-29T03:28:43.650Z,109.83
2017-11-29T03:31:11.175Z,102.50
2017-11-29T03:33:38.700Z,97.83
2017-11-29T03:36:06.194Z,91.57
2017-11-29T03:38:33.668Z,82.77
2017-11-29T03:41:01.916Z,94.00
2017-11-29T03:43:30.899Z,91.43
2017-11-29T03:45:58.364Z,87.97
2017-11-29T03:48:25.877Z,86.83
2017-11-29T03:50:53.356Z,97.30
2017-11-29T03:53:20.906Z,82.90
2017-11-29T03:55:48.403Z,106.17
2017-11-29T03:58:15.982Z,111.60
2017-11-29T04:00:44.229Z,116.10
2017-11-29T04:03:11.718Z,87.57
2017-11-29T04:05:39.201Z,133.70
2017-11-29T04:08:06.697Z,104.53
2017-11-29T04:10:34.224Z,135.37
2017-11-29T04:13:01.787Z,98.93
2017-11-29T04:15:29.307Z,107.77
2017-11-29T04:17:56.827Z,108.20
2017-11-29T04:20:24.330Z,90.97
2017-11-29T04:22:51.799Z,99.63
2017-11-29T04:25:19.285Z,116.20
2017-11-29T04:27:46.768Z,105.53
2017-11-29T04:30:14.270Z,107.20
2017-11-29T04:32:42.528Z,126.60
2017-11-29T04:35:10.034Z,107.73
2017-11-29T04:37:38.396Z,107.87
2017-11-29T04:40:06.654Z,118.47
2017-11-29T04:42:34.903Z,115.70
2017-11-29T04:45:02.437Z,117.67
2017-11-29T04:47:30.038Z,142.83
2017-11-29T04:49:57.634Z,144.13
2017-11-29T04:52:26.638Z,159.70
2017-11-29T04:54:54.214Z,130.73
2017-11-29T04:57:21.952Z,139.00
2017-11-29T04:59:50.228Z,110.30
2017-11-29T05:02:18.488Z,113.70
2017-11-29T05:04:46.726Z,125.40
2017-11-29T05:07:14.248Z,131.30
2017-11-29T05:09:42.495Z,117.30
2017-11-29T05:12:09.973Z,126.43
2017-11-29T05:14:38.276Z,100.77
2017-11-29T05:17:05.804Z,100.00
2017-11-29T05:19:33.345Z,105.50
2017-11-29T05:22:00.820Z,123.30
2017-11-29T05:24:28.309Z,103.17
2017-11-29T05:26:55.832Z,98.20
2017-11-29T05:29:23.332Z,116.13
2017-11-29T05:31:50.845Z,108.07
2017-11-29T05:34:18.349Z,109.20
2017-11-29T05:36:46.683Z,99.33
2017-11-29T05:39:14.186Z,104.17
2017-11-29T05:41:42.424Z,94.07
2017-11-29T05:44:09.921Z,105.40
2017-11-29T05:46:37.419Z,103.43
2017-11-29T05:49:06.458Z,103.33
2017-11-29T05:51:34.193Z,107.70
2017-11-29T05:54:02.479Z,96.63
2017-11-29T05:56:30.250Z,113.73
2017-11-29T05:58:58.504Z,107.03
2017-11-29T06:01:26.038Z,102.53
2017-11-29T06:03:53.631Z,100.10
2017-11-29T06:06:22.620Z,100.90
2017-11-29T06:08:50.096Z,99.83
2017-11-29T06:11:17.578Z,109.27
2017-11-29T06:13:45.835Z,99.40
2017-11-29T06:16:14.096Z,105.30
2017-11-29T06:18:41.606Z,123.60
2017-11-29T06:21:09.089Z,127.63
2017-11-29T06:23:36.615Z,114.40
2017-11-29T06:26:04.105Z,115.77
2017-11-29T06:28:31.587Z,112.27
2017-11-29T06:30:59.112Z,135.30
2017-11-29T06:33:26.789Z,112.20
2017-11-29T06:35:54.281Z,119.00
2017-11-29T06:38:21.772Z,112.20
2017-11-29T06:40:49.253Z,127.83
2017-11-29T06:43:16.727Z,107.30
2017-11-29T06:45:44.206Z,98.27
2017-11-29T06:48:11.688Z,96.73
2017-11-29T06:50:39.942Z,120.07
2017-11-29T06:53:07.426Z,119.53
2017-11-29T06:55:35.943Z,117.63
2017-11-29T06:58:03.421Z,105.87
2017-11-29T07:00:30.909Z,109.77
2017-11-29T07:02:58.369Z,114.90
2017-11-29T07:05:25.840Z,118.63
2017-11-29T07:07:54.073Z,134.57
2017-11-29T07:10:21.560Z,116.40
2017-11-29T07:12:49.085Z,111.93
2017-11-29T07:15:16.684Z,148.80
2017-11-29T07:17:44.196Z,94.43
2017-11-29T07:20:11.668Z,114.77
2017-11-29T07:22:39.153Z,107.90
2017-11-29T07:25:06.660Z,86.67
2017-11-29T07:27:34.153Z,100.77
2017-11-29T07:30:01.680Z,112.23
2017-11-29T07:32:29.141Z,100.07
2017-11-29T07:34:56.671Z,110.13
2017-11-29T07:37:24.898Z,93.90
2017-11-29T07:39:52.386Z,101.97
2017-11-29T07:42:21.380Z,88.20
2017-11-29T07:44:48.853Z,75.93
2017-11-29T07:47:17.079Z,97.77
2017-11-29T07:49:44.563Z,83.30
2017-11-29T07:52:12.031Z,86.77
2017-11-29T07:54:39.532Z,71.37
2017-11-29T07:57:07.069Z,68.07
2017-11-29T07:59:35.327Z,70.93
2017-11-29T08:02:02.797Z,76.97
2017-11-29T08:04:31.313Z,70.67
2017-11-29T08:06:58.825Z,75.13
2017-11-29T08:09:26.284Z,48.40
2017-11-29T08:11:54.673Z,37.83
2017-11-29T08:14:22.128Z,37.20
2017-11-29T08:16:50.385Z,33.23
2017-11-29T08:19:17.848Z,31.30
2017-11-29T08:21:45.333Z,25.30
2017-11-29T08:24:13.588Z,25.17
2017-11-29T08:26:41.067Z,20.00
2017-11-29T08:29:09.298Z,37.20
2017-11-29T08:31:36.825Z,29.43
2017-11-29T08:34:04.388Z,20.90
2017-11-29T08:36:33.540Z,20.03
2017-11-29T08:39:01.428Z,28.03
2017-11-29T08:41:29.660Z,18.47
2017-11-29T08:43:57.216Z,20.07
2017-11-29T08:46:24.720Z,19.73
2017-11-29T08:48:53.140Z,19.30
2017-11-29T08:51:20.982Z,18.80
2017-11-29T08:53:49.257Z,21.50
2017-11-29T08:56:17.129Z,16.80
2017-11-29T08:58:45.529Z,13.63
2017-11-29T09:01:12.997Z,15.83
2017-11-29T09:03:40.473Z,18.87
2017-11-29T09:06:07.984Z,12.70
2017-11-29T09:08:35.577Z,12.97
2017-11-29T09:11:03.146Z,17.47
2017-11-29T09:13:30.669Z,15.73
2017-11-29T09:15:58.180Z,12.37
2017-11-29T09:18:25.665Z,12.40
2017-11-29T09:20:53.923Z,16.73
2017-11-29T09:23:21.432Z,12.37
2017-11-29T09:25:48.934Z,13.90
2017-11-29T09:28:16.542Z,12.20
2017-11-29T09:30:44.077Z,11.60
2017-11-29T09:33:12.353Z,14.03
2017-11-29T09:35:40.000Z,11.20
2017-11-29T09:38:07.613Z,9.20
2017-11-29T09:40:35.096Z,12.40
2017-11-29T09:43:02.588Z,12.97
2017-11-29T09:45:30.152Z,10.93
2017-11-29T09:47:57.986Z,10.80
2017-11-29T09:50:25.485Z,17.23
2017-11-29T09:52:53.756Z,12.07
2017-11-29T09:55:22.081Z,10.70
2017-11-29T09:57:49.565Z,9.70
2017-11-29T10:00:17.104Z,11.13
2017-11-29T10:02:44.656Z,8.60
2017-11-29T10:05:12.364Z,8.47
2017-11-29T10:07:39.860Z,9.07
2017-11-29T10:10:07.378Z,9.03
2017-11-29T10:12:35.138Z,7.37
2017-11-29T10:15:02.712Z,8.07
2017-11-29T10:17:30.354Z,12.43
2017-11-29T10:19:58.101Z,9.67
2017-11-29T10:22:25.583Z,6.70
2017-11-29T10:24:53.086Z,8.20
2017-11-29T10:27:21.385Z,8.30
2017-11-29T10:29:48.878Z,8.43
2017-11-29T10:32:16.345Z,8.00
2017-11-29T10:34:43.842Z,7.80
2017-11-29T10:37:12.160Z,7.37
2017-11-29T10:39:39.623Z,6.97
2017-11-29T10:42:07.255Z,9.60
2017-11-29T10:44:34.784Z,7.27
2017-11-29T10:47:03.284Z,7.00
2017-11-29T10:49:31.040Z,8.20
2017-11-29T10:51:59.309Z,11.00
2017-11-29T10:54:27.041Z,8.13
2017-11-29T10:56:54.724Z,7.50
2017-11-29T10:59:22.230Z,10.73
2017-11-29T11:01:49.949Z,8.50
2017-11-29T11:04:17.569Z,8.27
2017-11-29T11:06:45.166Z,8.13
2017-11-29T11:09:12.724Z,7.43
2017-11-29T11:11:40.214Z,12.23
2017-11-29T11:14:08.605Z,11.03
2017-11-29T11:16:36.106Z,12.30
2017-11-29T11:19:03.728Z,10.07
2017-11-29T11:21:31.230Z,9.53
2017-11-29T11:23:58.784Z,17.70
2017-11-29T11:26:26.388Z,13.80
2017-11-29T11:28:54.637Z,10.20
2017-11-29T11:31:22.131Z,13.20
2017-11-29T11:33:50.793Z,13.50
2017-11-29T11:36:18.807Z,9.90
2017-11-29T11:38:46.385Z,11.00
2017-11-29T11:41:14.044Z,14.53
2017-11-29T11:43:42.201Z,14.03
2017-11-29T11:46:09.717Z,11.60
2017-11-29T11:48:37.320Z,12.87
2017-11-29T11:51:05.081Z,18.60
2017-11-29T11:53:32.670Z,13.20
2017-11-29T11:56:00.149Z,21.40
2017-11-29T11:58:27.760Z,16.83
2017-11-29T12:00:56.127Z,16.30
2017-11-29T12:03:24.356Z,13.77
2017-11-29T12:05:52.008Z,20.50
2017-11-29T12:08:19.569Z,15.43
2017-11-29T12:10:47.134Z,12.50
2017-11-29T12:13:14.608Z,10.40
2017-11-29T12:15:42.117Z,12.93
2017-11-29T12:18:09.605Z,13.00
2017-11-29T12:20:37.235Z,16.23
2017-11-29T12:23:05.471Z,12.77
2017-11-29T12:25:32.965Z,12.37
2017-11-29T12:28:01.213Z,13.57
2017-11-29T12:30:28.712Z,17.60
2017-11-29T12:32:57.247Z,12.40
2017-11-29T12:35:24.710Z,12.00
2017-11-29T12:37:52.207Z,15.97
2017-11-29T12:40:20.442Z,15.07
2017-11-29T12:42:47.919Z,10.60
2017-11-29T12:45:15.395Z,14.07
2017-11-29T12:47:43.632Z,7.93
2017-11-29T12:50:22.881Z,8.87
2017-11-29T12:52:50.373Z,15.63
2017-11-29T12:55:18.635Z,8.07
2017-11-29T12:57:46.873Z,8.83
2017-11-29T13:00:14.384Z,10.40
2017-11-29T13:02:41.889Z,8.40
2017-11-29T13:05:09.382Z,7.30
2017-11-29T13:07:37.186Z,9.80
2017-11-29T13:10:04.664Z,9.63
2017-11-29T13:12:32.141Z,11.27
2017-11-29T13:14:59.606Z,9.23
2017-11-29T13:17:27.149Z,13.70
2017-11-29T13:19:54.632Z,15.77
2017-11-29T13:22:22.168Z,8.43
2017-11-29T13:24:49.880Z,8.13
2017-11-29T13:27:18.230Z,8.23
2017-11-29T13:29:45.725Z,10.13
2017-11-29T13:32:13.405Z,10.63
2017-11-29T13:34:41.143Z,6.63
2017-11-29T13:37:09.858Z,7.50
2017-11-29T13:39:37.520Z,7.63
2017-11-29T13:42:05.090Z,8.33
2017-11-29T13:44:32.585Z,7.00
2017-11-29T13:47:00.649Z,6.23
2017-11-29T13:49:28.233Z,7.73
2017-11-29T13:51:56.684Z,7.63
2017-11-29T13:54:24.264Z,9.03
2017-11-29T13:56:51.813Z,8.80
2017-11-29T13:59:19.312Z,8.37
2017-11-29T14:01:46.843Z,8.27
2017-11-29T14:04:14.505Z,8.07
2017-11-29T14:06:41.983Z,9.93
2017-11-29T14:09:10.346Z,10.17
2017-11-29T14:11:37.975Z,9.00
2017-11-29T14:14:05.826Z,13.40
2017-11-29T14:16:33.308Z,10.23
2017-11-29T14:19:00.805Z,10.30
2017-11-29T14:21:29.774Z,12.30
2017-11-29T14:23:58.164Z,9.47
2017-11-29T14:26:25.814Z,7.27
2017-11-29T14:28:53.330Z,8.83
2017-11-29T14:31:20.779Z,9.53
2017-11-29T14:33:48.239Z,12.40
2017-11-29T14:36:15.723Z,10.03
2017-11-29T14:38:43.205Z,12.53
2017-11-29T14:41:10.693Z,7.87
2017-11-29T14:43:39.476Z,11.33
2017-11-29T14:46:07.013Z,13.40
2017-11-29T14:48:34.499Z,11.90
2017-11-29T14:51:02.768Z,16.00
2017-11-29T14:53:31.348Z,13.47
2017-11-29T14:55:58.916Z,15.70
2017-11-29T14:58:27.376Z,20.03
2017-11-29T15:00:54.847Z,15.70
2017-11-29T15:03:22.334Z,15.07
2017-11-29T15:05:50.705Z,22.07
2017-11-29T15:08:19.059Z,14.70
2017-11-29T15:10:46.534Z,12.67
2017-11-29T15:13:14.001Z,18.43
2017-11-29T15:15:42.228Z,13.90
2017-11-29T15:18:09.737Z,15.43
2017-11-29T15:20:38.128Z,17.30
2017-11-29T15:23:06.362Z,16.03
2017-11-29T15:25:38.793Z,17.27
2017-11-29T15:28:06.276Z,16.03
2017-11-29T15:30:33.753Z,20.00
2017-11-29T15:33:01.432Z,12.83
2017-11-29T15:35:29.088Z,17.70
2017-11-29T15:37:56.600Z,22.10
2017-11-29T15:40:24.158Z,16.70
2017-11-29T15:42:51.713Z,21.80
2017-11-29T15:45:19.200Z,18.70
2017-11-29T15:47:46.675Z,15.70
2017-11-29T15:50:14.191Z,18.50
2017-11-29T15:52:41.745Z,16.77
2017-11-29T15:55:09.232Z,14.23
2017-11-29T15:57:36.705Z,22.10
2017-11-29T16:00:04.187Z,21.37
2017-11-29T16:02:31.647Z,18.20
2017-11-29T16:04:59.127Z,20.83
2017-11-29T16:07:27.367Z,16.47
2017-11-29T16:09:54.865Z,17.70
2017-11-29T16:12:23.096Z,23.50
2017-11-29T16:14:50.567Z,21.50
2017-11-29T16:17:18.047Z,23.10
2017-11-29T16:19:46.273Z,23.50
2017-11-29T16:22:13.736Z,36.23
2017-11-29T16:24:41.204Z,28.37
2017-11-29T16:27:08.680Z,29.67
2017-11-29T16:29:36.928Z,30.50
2017-11-29T16:32:04.485Z,26.63
2017-11-29T16:34:32.049Z,19.67
2017-11-29T16:36:59.540Z,22.93
2017-11-29T16:39:27.037Z,28.70
2017-11-29T16:41:54.532Z,20.83
2017-11-29T16:44:22.014Z,24.37
2017-11-29T16:46:49.473Z,20.80
2017-11-29T16:49:16.970Z,22.20
2017-11-29T16:51:44.467Z,26.50
2017-11-29T16:54:12.207Z,31.43
2017-11-29T16:56:39.682Z,22.10
2017-11-29T16:59:07.209Z,26.83
2017-11-29T17:01:34.684Z,27.43
2017-11-29T17:04:02.233Z,28.70
2017-11-29T17:06:29.732Z,27.37
2017-11-29T17:08:57.266Z,31.73
2017-11-29T17:11:24.847Z,31.13
2017-11-29T17:13:52.318Z,31.27
2017-11-29T17:16:19.800Z,27.77
2017-11-29T17:18:48.051Z,30.57
2017-11-29T17:21:15.561Z,30.53
2017-11-29T17:23:43.028Z,29.80
2017-11-29T17:26:10.493Z,31.67
2017-11-29T17:28:37.978Z,28.60
2017-11-29T17:31:05.573Z,31.57
2017-11-29T17:33:33.838Z,28.57
2017-11-29T17:36:01.324Z,31.47
2017-11-29T17:38:29.580Z,42.03
2017-11-29T17:40:57.052Z,33.93
2017-11-29T17:43:25.306Z,34.17
2017-11-29T17:45:52.809Z,33.53
2017-11-29T17:48:20.293Z,37.77
2017-11-29T17:50:47.758Z,37.57
2017-11-29T17:53:15.275Z,36.40
2017-11-29T17:55:43.669Z,36.80
2017-11-29T17:58:12.847Z,37.27
2017-11-29T18:00:43.704Z,34.90
2017-11-29T18:03:11.193Z,42.53
2017-11-29T18:05:39.904Z,45.37
2017-11-29T18:08:07.389Z,46.30
2017-11-29T18:10:34.946Z,46.53
2017-11-29T18:13:02.668Z,38.63
2017-11-29T18:15:30.167Z,35.40
2017-11-29T18:17:58.451Z,39.40
2017-11-29T18:20:26.704Z,42.87
2017-11-29T18:22:54.163Z,39.13
2017-11-29T18:25:21.642Z,42.40
2017-11-29T18:27:49.876Z,40.87
2017-11-29T18:30:17.351Z,36.70
2017-11-29T18:32:45.619Z,40.07
2017-11-29T18:35:13.151Z,39.50
2017-11-29T18:37:40.616Z,45.40
2017-11-29T18:40:08.522Z,46.70
2017-11-29T18:42:36.032Z,33.17
2017-11-29T18:45:03.775Z,40.57
2017-11-29T18:47:31.280Z,40.97
2017-11-29T18:49:58.773Z,37.50
2017-11-29T18:52:27.077Z,48.57
2017-11-29T18:54:54.569Z,60.03
2017-11-29T18:57:23.154Z,59.50
2017-11-29T18:59:50.649Z,65.17
2017-11-29T19:02:18.886Z,75.97
2017-11-29T19:04:46.372Z,57.83
2017-11-29T19:07:13.869Z,65.10
2017-11-29T19:09:41.531Z,69.90
2017-11-29T19:12:09.045Z,69.30
2017-11-29T19:14:36.575Z,70.17
2017-11-29T19:17:04.105Z,69.17
2017-11-29T19:19:32.492Z,68.33
2017-11-29T19:21:59.962Z,67.83
2017-11-29T19:24:27.507Z,68.60
2017-11-29T19:26:56.112Z,69.03
2017-11-29T19:29:23.620Z,76.40
2017-11-29T19:31:51.073Z,73.60
2017-11-29T19:34:18.541Z,74.00
2017-11-29T19:36:46.804Z,67.53
2017-11-29T19:39:14.277Z,67.63
2017-11-29T19:41:42.516Z,58.53
2017-11-29T19:44:10.019Z,71.93
2017-11-29T19:46:37.568Z,68.93
2017-11-29T19:49:05.085Z,77.73
2017-11-29T19:51:32.584Z,73.53
2017-11-29T19:54:00.823Z,77.23
2017-11-29T19:56:28.287Z,71.60
2017-11-29T19:58:56.507Z,74.93
2017-11-29T20:01:24.757Z,87.70
2017-11-29T20:03:53.379Z,96.20
2017-11-29T20:06:20.881Z,70.20
2017-11-29T20:08:48.607Z,81.50
2017-11-29T20:11:16.102Z,82.00
2017-11-29T20:13:45.859Z,82.40
2017-11-29T20:16:14.127Z,88.33
2017-11-29T20:18:42.389Z,84.30
2017-11-29T20:21:10.171Z,79.13
2017-11-29T20:23:39.156Z,83.13
2017-11-29T20:26:07.473Z,73.13
2017-11-29T20:28:36.821Z,62.87
2017-11-29T20:31:05.522Z,72.93
2017-11-29T20:33:33.896Z,78.57
2017-11-29T20:36:02.026Z,94.10
2017-11-29T20:38:30.148Z,75.03
2017-11-29T20:40:57.700Z,78.23
2017-11-29T20:43:25.299Z,75.87
2017-11-29T20:45:53.045Z,79.87
2017-11-29T20:48:21.424Z,80.80
2017-11-29T20:50:49.148Z,79.13
2017-11-29T20:53:16.750Z,68.57
2017-11-29T20:55:45.132Z,84.20
2017-11-29T20:58:13.397Z,77.63
2017-11-29T21:00:41.016Z,82.57
2017-11-29T21:03:08.525Z,87.93
2017-11-29T21:05:36.840Z,73.47
2017-11-29T21:08:04.318Z,84.17
2017-11-29T21:10:31.977Z,72.17
2017-11-29T21:12:59.457Z,87.97
2017-11-29T21:15:27.748Z,89.73
2017-11-29T21:17:56.034Z,82.40
2017-11-29T21:20:24.277Z,86.77
2017-11-29T21:22:51.756Z,84.17
2017-11-29T21:25:20.977Z,83.90
2017-11-29T21:27:48.493Z,84.17
2017-11-29T21:30:15.977Z,88.77
2017-11-29T21:32:44.271Z,87.40
2017-11-29T21:35:12.573Z,87.33
2017-11-29T21:37:40.367Z,98.07
2017-11-29T21:40:07.850Z,91.80
2017-11-29T21:42:36.318Z,83.63
2017-11-29T21:45:03.823Z,90.63
2017-11-29T21:47:32.077Z,72.87
2017-11-29T21:49:59.553Z,105.37
2017-11-29T21:52:27.805Z,92.00
2017-11-29T21:54:55.317Z,82.60
2017-11-29T21:57:22.780Z,92.93
2017-11-29T21:59:50.349Z,88.90
2017-11-29T22:02:17.852Z,97.20
2017-11-29T22:04:45.358Z,107.27
2017-11-29T22:07:12.869Z,142.53
2017-11-29T22:09:40.441Z,120.50
2017-11-29T22:12:08.678Z,150.83
2017-11-29T22:14:36.166Z,128.50
2017-11-29T22:17:04.447Z,149.00
2017-11-29T22:19:32.676Z,132.40
2017-11-29T22:22:00.158Z,135.87
2017-11-29T22:24:27.687Z,154.50
2017-11-29T22:26:55.156Z,117.33
2017-11-29T22:29:22.642Z,134.10
2017-11-29T22:31:50.114Z,153.60
2017-11-29T22:34:18.397Z,124.00
2017-11-29T22:36:46.625Z,126.20
2017-11-29T22:39:14.134Z,134.77
2017-11-29T22:41:42.379Z,104.63
2017-11-29T22:44:09.861Z,116.77
2017-11-29T22:46:38.096Z,101.60
2017-11-29T22:49:05.599Z,112.43
2017-11-29T22:51:33.857Z,99.57
2017-11-29T22:54:01.352Z,113.77
2017-11-29T22:56:28.898Z,116.73
2017-11-29T22:58:57.156Z,91.37
2017-11-29T23:01:24.650Z,96.57
2017-11-29T23:03:52.153Z,87.10
2017-11-29T23:06:19.637Z,99.97
2017-11-29T23:08:47.137Z,93.87
2017-11-29T23:11:14.605Z,94.33
2017-11-29T23:13:42.057Z,95.87
2017-11-29T23:16:09.536Z,88.73
2017-11-29T23:18:37.036Z,86.47
2017-11-29T23:21:05.295Z,94.83
2017-11-29T23:23:32.811Z,88.33
2017-11-29T23:26:00.295Z,85.37
2017-11-29T23:28:27.772Z,87.73
2017-11-29T23:30:56.752Z,86.73
2017-11-29T23:33:24.236Z,87.07
2017-11-29T23:35:51.917Z,84.70
2017-11-29T23:38:20.180Z,91.23
2017-11-29T23:40:48.422Z,91.93
2017-11-29T23:43:15.897Z,94.10
2017-11-29T23:45:43.366Z,93.13
2017-11-29T23:48:10.852Z,102.67
2017-11-29T23:50:38.376Z,92.27
2017-11-29T23:53:05.845Z,93.30
2017-11-29T23:55:34.100Z,80.67
2017-11-29T23:58:01.577Z,103.10
